createdAt,value
2019-03-08T00:04:56.909Z,96902.00
2019-03-08T00:10:04.072Z,96918.00
2019-03-08T00:15:15.185Z,96915.00
2019-03-08T00:20:21.213Z,96903.00
2019-03-08T00:25:28.591Z,96924.00
2019-03-08T00:30:36.438Z,96918.00
2019-03-08T00:35:43.311Z,96923.00
2019-03-08T00:40:49.253Z,96915.00
2019-03-08T00:45:56.185Z,96902.00
2019-03-08T00:51:03.007Z,96920.00
2019-03-08T00:56:10.899Z,96924.00
2019-03-08T01:01:19.398Z,96920.00
2019-03-08T01:06:26.908Z,96918.00
2019-03-08T01:11:33.748Z,96912.00
2019-03-08T01:16:40.446Z,96917.00
2019-03-08T01:21:46.276Z,96908.00
2019-03-08T01:26:53.258Z,96907.00
2019-03-08T01:31:59.963Z,96905.00
2019-03-08T01:37:06.612Z,96904.00
2019-03-08T01:42:13.612Z,96908.00
2019-03-08T01:47:19.943Z,96891.00
2019-03-08T01:52:26.925Z,96876.00
2019-03-08T01:57:33.486Z,96866.00
2019-03-08T02:02:41.148Z,96864.00
2019-03-08T02:07:47.226Z,96858.00
2019-03-08T02:12:53.856Z,96851.00
2019-03-08T02:18:00.685Z,96831.00
2019-03-08T02:23:07.093Z,96832.00
2019-03-08T02:28:13.508Z,96825.00
2019-03-08T02:33:20.474Z,96816.00
2019-03-08T02:38:28.251Z,96818.00
2019-03-08T02:43:35.255Z,96842.00
2019-03-08T02:48:42.089Z,96835.00
2019-03-08T02:53:48.027Z,96838.00
2019-03-08T02:59:16.807Z,96842.00
2019-03-08T03:04:22.864Z,96847.00
2019-03-08T03:09:29.776Z,96870.00
2019-03-08T03:14:36.518Z,96866.00
2019-03-08T03:19:43.358Z,96864.00
2019-03-08T03:24:49.744Z,96866.00
2019-03-08T03:29:58.023Z,96879.00
2019-03-08T03:35:05.670Z,96878.00
2019-03-08T03:40:16.950Z,96876.00
2019-03-08T03:45:23.841Z,96880.00
2019-03-08T03:50:30.635Z,96879.00
2019-03-08T03:55:37.394Z,96868.00
2019-03-08T04:00:44.389Z,96871.00
2019-03-08T04:05:52.178Z,96868.00
2019-03-08T04:10:58.594Z,96891.00
2019-03-08T04:16:05.232Z,96888.00
2019-03-08T04:21:30.639Z,96888.00
2019-03-08T04:26:37.233Z,96860.00
2019-03-08T04:31:43.777Z,96870.00
2019-03-08T04:36:49.847Z,96887.00
2019-03-08T04:41:56.710Z,96877.00
2019-03-08T04:47:03.325Z,96878.00
2019-03-08T04:52:10.197Z,96878.00
2019-03-08T04:57:16.539Z,96887.00
2019-03-08T05:02:22.555Z,96883.00
2019-03-08T05:07:29.223Z,96872.00
2019-03-08T05:12:35.210Z,96876.00
2019-03-08T05:17:41.908Z,96884.00
2019-03-08T05:22:48.140Z,96881.00
2019-03-08T05:27:54.804Z,96864.00
2019-03-08T05:33:01.262Z,96868.00
2019-03-08T05:38:09.267Z,96857.00
2019-03-08T05:43:17.366Z,96871.00
2019-03-08T05:48:26.424Z,96880.00
2019-03-08T05:53:33.758Z,96894.00
2019-03-08T05:58:40.321Z,96890.00
2019-03-08T06:03:46.592Z,96908.00
2019-03-08T06:08:52.552Z,96914.00
2019-03-08T06:13:59.368Z,96919.00
2019-03-08T06:19:06.162Z,96931.00
2019-03-08T06:24:14.275Z,96958.00
2019-03-08T06:29:22.087Z,96946.00
2019-03-08T06:34:28.224Z,96974.00
2019-03-08T06:39:35.281Z,96990.00
2019-03-08T06:44:43.494Z,96996.00
2019-03-08T06:49:49.464Z,97015.00
2019-03-08T06:54:56.554Z,97028.00
2019-03-08T07:00:05.007Z,97031.00
2019-03-08T07:05:14.351Z,97022.00
2019-03-08T07:10:20.676Z,97042.00
2019-03-08T07:15:27.678Z,97041.00
2019-03-08T07:20:43.375Z,97038.00
2019-03-08T07:25:54.167Z,97049.00
2019-03-08T07:31:31.233Z,97043.00
2019-03-08T07:37:18.572Z,97069.00
2019-03-08T07:42:35.181Z,97083.00
2019-03-08T07:47:49.362Z,97112.00
2019-03-08T07:53:13.719Z,97108.00
2019-03-08T07:58:24.338Z,97133.00
2019-03-08T08:03:32.357Z,97154.00
2019-03-08T08:08:40.795Z,97159.00
2019-03-08T08:13:51.043Z,97177.00
2019-03-08T08:24:30.279Z,97204.00
2019-03-08T08:29:44.801Z,97214.00
2019-03-08T08:34:59.331Z,97237.00
2019-03-08T08:40:35.821Z,97229.00
2019-03-08T08:45:50.041Z,97254.00
2019-03-08T08:51:01.243Z,97253.00
2019-03-08T08:56:09.885Z,97262.00
2019-03-08T09:01:34.720Z,97270.00
2019-03-08T09:06:55.695Z,97273.00
2019-03-08T09:12:04.836Z,97269.00
2019-03-08T09:17:13.650Z,97291.00
2019-03-08T09:22:46.494Z,97293.00
2019-03-08T09:27:58.012Z,97292.00
2019-03-08T09:33:09.181Z,97314.00
2019-03-08T09:38:42.025Z,97338.00
2019-03-08T09:44:00.150Z,97343.00
2019-03-08T09:49:17.978Z,97360.00
2019-03-08T09:54:27.125Z,97371.00
2019-03-08T09:59:36.814Z,97361.00
2019-03-08T10:04:58.006Z,97371.00
2019-03-08T10:10:12.738Z,97374.00
2019-03-08T10:15:21.152Z,97384.00
2019-03-08T10:20:31.747Z,97393.00
2019-03-08T10:25:49.873Z,97387.00
2019-03-08T10:31:03.939Z,97412.00
2019-03-08T10:36:20.693Z,97416.00
2019-03-08T10:41:56.671Z,97409.00
2019-03-08T10:47:23.232Z,97401.00
2019-03-08T10:52:33.749Z,97423.00
2019-03-08T10:57:53.967Z,97436.00
2019-03-08T11:03:33.318Z,97427.00
2019-03-08T11:08:57.835Z,97441.00
2019-03-08T11:14:06.131Z,97441.00
2019-03-08T11:19:23.268Z,97456.00
2019-03-08T11:24:30.936Z,97465.00
2019-03-08T11:29:45.064Z,97461.00
2019-03-08T11:34:57.438Z,97471.00
2019-03-08T11:40:14.487Z,97469.00
2019-03-08T11:45:31.624Z,97495.00
2019-03-08T11:50:56.083Z,97481.00
2019-03-08T11:56:12.582Z,97500.00
2019-03-08T12:01:39.209Z,97501.00
2019-03-08T12:07:00.461Z,97523.00
2019-03-08T12:12:11.730Z,97533.00
2019-03-08T12:17:19.373Z,97567.00
2019-03-08T12:22:27.012Z,97576.00
2019-03-08T12:27:36.871Z,97564.00
2019-03-08T12:32:54.232Z,97554.00
2019-03-08T12:38:08.347Z,97576.00
2019-03-08T12:43:22.476Z,97594.00
2019-03-08T12:48:43.388Z,97581.00
2019-03-08T12:53:59.819Z,97571.00
2019-03-08T12:59:24.307Z,97549.00
2019-03-08T13:04:35.296Z,97578.00
2019-03-08T13:09:44.077Z,97579.00
2019-03-08T13:14:50.184Z,97578.00
2019-03-08T13:20:18.495Z,97583.00
2019-03-08T13:25:25.498Z,97576.00
2019-03-08T13:30:32.299Z,97593.00
2019-03-08T13:35:40.695Z,97584.00
2019-03-08T13:40:47.893Z,97598.00
2019-03-08T13:45:54.812Z,97595.00
2019-03-08T13:51:01.849Z,97607.00
2019-03-08T13:56:10.892Z,97598.00
2019-03-08T14:01:17.564Z,97604.00
2019-03-08T14:06:23.652Z,97609.00
2019-03-08T14:11:31.889Z,97636.00
2019-03-08T14:16:38.841Z,97635.00
2019-03-08T14:21:44.880Z,97651.00
2019-03-08T14:26:51.679Z,97653.00
2019-03-08T14:32:00.212Z,97653.00
2019-03-08T14:37:06.813Z,97674.00
2019-03-08T14:42:15.675Z,97674.00
2019-03-08T14:47:23.334Z,97675.00
2019-03-08T14:52:29.571Z,97680.00
2019-03-08T14:57:36.664Z,97683.00
2019-03-08T15:02:47.172Z,97678.00
2019-03-08T15:07:54.681Z,97683.00
2019-03-08T15:13:01.697Z,97682.00
2019-03-08T15:18:08.523Z,97684.00
2019-03-08T15:23:17.140Z,97678.00
2019-03-08T15:28:22.794Z,97689.00
2019-03-08T15:33:29.772Z,97682.00
2019-03-08T15:38:36.474Z,97716.00
2019-03-08T15:43:47.117Z,97721.00
2019-03-08T15:48:53.128Z,97731.00
2019-03-08T15:54:00.855Z,97728.00
2019-03-08T15:59:07.472Z,97739.00
2019-03-08T16:04:14.393Z,97736.00
2019-03-08T16:09:22.316Z,97752.00
2019-03-08T16:14:30.821Z,97746.00
2019-03-08T16:19:37.302Z,97750.00
2019-03-08T16:24:44.052Z,97766.00
2019-03-08T16:29:50.034Z,97769.00
2019-03-08T16:35:15.173Z,97777.00
2019-03-08T16:40:22.604Z,97778.00
2019-03-08T16:45:36.585Z,97786.00
2019-03-08T16:51:00.245Z,97792.00
2019-03-08T16:56:14.568Z,97796.00
2019-03-08T17:01:40.337Z,97803.00
2019-03-08T17:06:53.437Z,97817.00
2019-03-08T17:12:07.906Z,97829.00
2019-03-08T17:17:22.700Z,97831.00
2019-03-08T17:22:58.137Z,97838.00
2019-03-08T17:28:10.538Z,97852.00
2019-03-08T17:33:40.842Z,97861.00
2019-03-08T17:38:48.403Z,97870.00
2019-03-08T17:44:16.290Z,97889.00
2019-03-08T17:49:55.161Z,97883.00
2019-03-08T17:55:09.535Z,97899.00
2019-03-08T18:00:27.939Z,97897.00
2019-03-08T18:05:44.872Z,97917.00
2019-03-08T18:11:02.705Z,97925.00
2019-03-08T18:16:14.164Z,97917.00
2019-03-08T18:21:34.894Z,97925.00
2019-03-08T18:26:52.398Z,97936.00
2019-03-08T18:32:00.775Z,97935.00
2019-03-08T18:37:09.468Z,97947.00
2019-03-08T18:42:20.893Z,97945.00
2019-03-08T18:47:33.970Z,97946.00
2019-03-08T18:52:44.053Z,97959.00
2019-03-08T18:58:07.625Z,97956.00
2019-03-08T19:03:32.718Z,97965.00
2019-03-08T19:08:47.164Z,97973.00
2019-03-08T19:14:17.094Z,97975.00
2019-03-08T19:25:01.094Z,97975.00
2019-03-08T19:30:36.283Z,97983.00
2019-03-08T19:35:46.329Z,97984.00
2019-03-08T19:41:14.946Z,97977.00
2019-03-08T19:46:37.979Z,97984.00
2019-03-08T19:51:48.065Z,97984.00
2019-03-08T19:57:02.768Z,97989.00
2019-03-08T20:02:10.811Z,97981.00
2019-03-08T20:07:19.120Z,97985.00
2019-03-08T20:12:29.766Z,97971.00
2019-03-08T20:17:54.030Z,97982.00
2019-03-08T20:28:40.463Z,97959.00
2019-03-08T20:33:55.239Z,97967.00
2019-03-08T20:39:09.286Z,97969.00
2019-03-08T20:44:32.923Z,97982.00
2019-03-08T20:49:39.691Z,97972.00
2019-03-08T20:54:45.718Z,97972.00
2019-03-08T20:59:51.784Z,97978.00
2019-03-08T21:04:58.556Z,97986.00
2019-03-08T21:10:17.796Z,97980.00
2019-03-08T21:15:25.683Z,97990.00
2019-03-08T21:20:32.766Z,97996.00
2019-03-08T21:26:00.157Z,97999.00
2019-03-08T21:31:07.071Z,97990.00
2019-03-08T21:36:14.051Z,97999.00
2019-03-08T21:41:21.186Z,97990.00
2019-03-08T21:46:27.976Z,97994.00
2019-03-08T21:51:35.988Z,97989.00
2019-03-08T21:56:42.901Z,97980.00
2019-03-08T22:01:48.856Z,97968.00
2019-03-08T22:06:55.257Z,97969.00
2019-03-08T22:12:02.878Z,97954.00
2019-03-08T22:17:10.803Z,97956.00
2019-03-08T22:22:17.149Z,97953.00
2019-03-08T22:27:23.009Z,97934.00
2019-03-08T22:32:28.857Z,97924.00
2019-03-08T22:37:56.923Z,97915.00
2019-03-08T22:43:03.476Z,97902.00
2019-03-08T22:48:09.758Z,97906.00
2019-03-08T22:53:18.010Z,97899.00
2019-03-08T22:58:24.503Z,97888.00
2019-03-08T23:03:31.882Z,97888.00
2019-03-08T23:08:39.402Z,97885.00
2019-03-08T23:13:57.835Z,97874.00
2019-03-08T23:19:05.232Z,97872.00
2019-03-08T23:24:11.869Z,97871.00
2019-03-08T23:29:23.597Z,97876.00
2019-03-08T23:34:31.753Z,97870.00
2019-03-08T23:39:38.136Z,97883.00
2019-03-08T23:44:44.429Z,97861.00
2019-03-08T23:49:50.705Z,97870.00
2019-03-08T23:54:56.446Z,97859.00
